Time;durP1;ratioP1;P1;durP2;ratioP2;P2;SDS_P1;SDS_P2;PMS_P1;PMS_P2;Temp;Humidity;BMP_temperature;BMP_pressure;BME280_temperature;BME280_humidity;BME280_pressure;Samples;Min_cycle;Max_cycle;Signal;HPM_P1;HPM_P2
2021/12/25 00:01:21;;;;;;;1999.90;999.90;;;-1.60;99.90;;;;;;5049431;28;20793;-67
2021/12/25 00:03:49;;;;;;;1999.90;999.90;;;-1.70;99.90;;;;;;5050005;28;20511;-66
2021/12/25 00:06:15;;;;;;;1999.90;999.90;;;-1.80;99.90;;;;;;5050776;28;20504;-66
2021/12/25 00:08:43;;;;;;;1999.90;999.90;;;-1.70;99.90;;;;;;5051112;28;20466;-67
2021/12/25 00:11:10;;;;;;;1999.90;999.90;;;-1.80;99.90;;;;;;5061024;28;20443;-67
2021/12/25 00:13:38;;;;;;;1999.90;999.90;;;-1.80;99.90;;;;;;5051814;28;20478;-66
2021/12/25 00:16:05;;;;;;;1999.90;999.90;;;-1.60;99.90;;;;;;5051292;28;20512;-67
2021/12/25 00:18:32;;;;;;;1999.90;999.90;;;-1.70;99.90;;;;;;5051123;28;20470;-67
2021/12/25 00:20:59;;;;;;;1999.90;999.90;;;-1.40;99.90;;;;;;5051013;28;20447;-67
2021/12/25 00:23:25;;;;;;;1999.90;999.90;;;-1.60;99.90;;;;;;5051322;28;20497;-67
2021/12/25 00:25:58;;;;;;;1999.90;999.90;;;-1.60;99.90;;;;;;5051510;28;20446;-67
2021/12/25 00:28:47;;;;;;;1999.90;999.90;;;-1.20;99.90;;;;;;5031996;28;20533;-67
2021/12/25 00:31:26;;;;;;;1999.90;999.90;;;-1.40;99.90;;;;;;5036536;28;20446;-68
2021/12/25 00:33:57;;;;;;;1999.90;999.90;;;-1.20;99.90;;;;;;5055373;28;20473;-67
2021/12/25 00:36:25;;;;;;;1999.90;999.90;;;-1.30;99.90;;;;;;5051893;28;20443;-67
2021/12/25 00:38:53;;;;;;;1999.90;999.90;;;-0.80;99.90;;;;;;5050526;28;20559;-67
2021/12/25 00:41:23;;;;;;;1999.90;999.90;;;-0.80;99.90;;;;;;5050900;28;20887;-67
2021/12/25 00:43:51;;;;;;;1999.90;999.90;;;-1.10;99.90;;;;;;5051566;28;20865;-67
2021/12/25 00:46:17;;;;;;;1999.90;999.90;;;-0.90;99.90;;;;;;5053797;28;20447;-66
2021/12/25 00:48:44;;;;;;;1999.90;999.90;;;-1.00;99.90;;;;;;5050441;28;20557;-67
2021/12/25 00:51:11;;;;;;;1999.90;999.90;;;-1.20;99.90;;;;;;5050927;28;20454;-68
2021/12/25 00:53:38;;;;;;;1999.90;999.90;;;-0.60;99.90;;;;;;5053912;28;20477;-67
2021/12/25 00:56:05;;;;;;;1999.90;999.90;;;-1.30;99.90;;;;;;5055779;28;20438;-66
2021/12/25 00:58:33;;;;;;;1999.90;999.90;;;-1.40;99.90;;;;;;5054459;28;20466;-67
2021/12/25 01:01:00;;;;;;;1999.90;999.90;;;-1.20;99.90;;;;;;5055396;28;20450;-67
2021/12/25 01:03:26;;;;;;;1999.90;999.90;;;-1.70;99.90;;;;;;5055363;28;20488;-67
2021/12/25 01:05:53;;;;;;;1999.90;999.90;;;-1.20;99.90;;;;;;5069622;28;20451;-66
2021/12/25 01:08:20;;;;;;;1999.90;999.90;;;-1.70;99.90;;;;;;5054339;28;20474;-66
2021/12/25 01:10:46;;;;;;;1999.90;999.90;;;-1.80;99.90;;;;;;5054815;28;20488;-67
2021/12/25 01:13:20;;;;;;;1999.90;999.90;;;-1.20;99.90;;;;;;5055390;28;20507;-66
2021/12/25 01:15:59;;;;;;;1999.90;999.90;;;-1.20;99.90;;;;;;5055041;28;20454;-67
2021/12/25 01:21:35;;;;;;;1999.90;999.90;;;-1.30;99.90;;;;;;5048691;28;20533;-67
2021/12/25 01:24:26;;;;;;;1999.90;999.90;;;-1.70;99.90;;;;;;5055184;28;20938;-67
2021/12/25 01:27:13;;;;;;;1999.90;999.90;;;-1.60;99.90;;;;;;5054373;28;20488;-66
2021/12/25 01:29:45;;;;;;;1999.90;999.90;;;-1.60;99.90;;;;;;5067030;28;20575;-66
2021/12/25 01:32:45;;;;;;;1999.90;999.90;;;-1.60;99.90;;;;;;5066385;28;20461;-66
2021/12/25 01:35:39;;;;;;;1999.90;999.90;;;-1.40;99.90;;;;;;5054068;28;20449;-68
2021/12/25 01:38:21;;;;;;;1999.90;999.90;;;-2.00;99.90;;;;;;5054208;28;20493;-66
2021/12/25 01:40:57;;;;;;;1999.90;999.90;;;-2.00;99.90;;;;;;5054379;28;20482;-68
2021/12/25 01:48:54;;;;;;;1999.90;999.90;;;-2.00;99.90;;;;;;5054089;28;20461;-67
2021/12/25 01:51:20;;;;;;;1999.90;999.90;;;-2.00;99.90;;;;;;5053488;28;20450;-67
2021/12/25 01:53:47;;;;;;;1999.90;999.90;;;-2.00;99.90;;;;;;5049511;28;20481;-66
2021/12/25 01:56:15;;;;;;;1999.90;999.90;;;-2.00;99.90;;;;;;5054078;28;20450;-66
2021/12/25 01:58:41;;;;;;;1999.90;999.90;;;-2.00;99.90;;;;;;5053830;28;20478;-66
2021/12/25 02:01:10;;;;;;;1999.90;999.90;;;-2.10;99.90;;;;;;5053635;28;20454;-66
2021/12/25 02:03:37;;;;;;;1999.90;999.90;;;-2.10;99.90;;;;;;5053823;28;20493;-66
2021/12/25 02:06:08;;;;;;;1999.90;999.90;;;-2.10;99.90;;;;;;5053084;28;20446;-66
2021/12/25 02:08:35;;;;;;;1999.90;999.90;;;-1.60;99.90;;;;;;5053233;28;20524;-68
2021/12/25 02:11:02;;;;;;;1999.90;999.90;;;-2.10;99.90;;;;;;5054131;28;20468;-66
2021/12/25 02:13:29;;;;;;;1999.90;999.90;;;-2.10;99.90;;;;;;5054011;28;20482;-67
2021/12/25 02:15:57;;;;;;;1999.90;999.90;;;-2.10;99.90;;;;;;5053983;28;20496;-66
2021/12/25 02:18:29;;;;;;;1999.90;999.90;;;-1.70;99.90;;;;;;5066566;28;20497;-67
2021/12/25 02:21:06;;;;;;;1999.90;999.90;;;-2.30;99.90;;;;;;5074042;28;20482;-67
2021/12/25 02:23:34;;;;;;;1999.90;999.90;;;-2.30;99.90;;;;;;5056340;28;20450;-66
2021/12/25 02:26:01;;;;;;;1999.90;999.90;;;-2.30;99.90;;;;;;5053951;28;20443;-65
2021/12/25 02:28:28;;;;;;;1999.90;999.90;;;-2.20;99.90;;;;;;5054795;28;20837;-66
2021/12/25 02:30:58;;;;;;;1999.90;999.90;;;-2.20;99.90;;;;;;5053095;28;20454;-66
2021/12/25 02:33:25;;;;;;;1999.90;999.90;;;-2.30;99.90;;;;;;5053903;28;20470;-67
2021/12/25 02:35:52;;;;;;;1999.90;999.90;;;-2.30;99.90;;;;;;5053260;28;21020;-66
2021/12/25 02:38:20;;;;;;;1999.90;999.90;;;-2.30;99.90;;;;;;5053911;28;20478;-66
2021/12/25 02:40:47;;;;;;;1999.90;999.90;;;-2.30;99.90;;;;;;5053322;28;20442;-67
2021/12/25 02:43:13;;;;;;;1999.90;999.90;;;-2.20;99.90;;;;;;5053148;28;20500;-66
2021/12/25 02:45:40;;;;;;;1999.90;999.90;;;-2.30;99.90;;;;;;5051993;28;20954;-66
2021/12/25 02:48:09;;;;;;;1999.90;999.90;;;-2.20;99.90;;;;;;5053930;28;21050;-66
2021/12/25 02:50:37;;;;;;;1999.90;999.90;;;-2.20;99.90;;;;;;5058937;28;20450;-67
2021/12/25 02:53:07;;;;;;;1999.90;999.90;;;-2.10;99.90;;;;;;5052637;28;20446;-65
2021/12/25 02:55:36;;;;;;;1999.90;999.90;;;-2.20;99.90;;;;;;5052801;28;20446;-67
2021/12/25 02:58:03;;;;;;;1999.90;999.90;;;-2.10;99.90;;;;;;5052587;28;21047;-66
2021/12/25 03:00:32;;;;;;;1999.90;999.90;;;-2.10;99.90;;;;;;5052443;28;20508;-66
2021/12/25 03:03:00;;;;;;;1999.90;999.90;;;-2.10;99.90;;;;;;5053307;28;20500;-67
2021/12/25 03:05:27;;;;;;;1999.90;999.90;;;-2.20;99.90;;;;;;5053971;28;20438;-66
2021/12/25 03:07:54;;;;;;;1999.90;999.90;;;-2.20;99.90;;;;;;5053431;28;21051;-67
2021/12/25 03:10:21;;;;;;;1999.90;999.90;;;-2.20;99.90;;;;;;5053068;28;20446;-67
2021/12/25 03:12:53;;;;;;;1999.90;999.90;;;-2.30;99.90;;;;;;5054483;28;20438;-68
2021/12/25 03:15:28;;;;;;;1999.90;999.90;;;-2.30;99.90;;;;;;5053614;28;20470;-67
2021/12/25 03:17:56;;;;;;;1999.90;999.90;;;-2.30;99.90;;;;;;5055054;28;20469;-67
2021/12/25 03:20:24;;;;;;;1999.90;999.90;;;-2.30;99.90;;;;;;5053693;28;20499;-66
2021/12/25 03:22:51;;;;;;;1999.90;999.90;;;-2.30;99.90;;;;;;5034329;28;20444;-66
2021/12/25 03:25:19;;;;;;;1999.90;999.90;;;-2.40;99.90;;;;;;5048179;28;20449;-66
2021/12/25 03:27:47;;;;;;;1999.90;999.90;;;-2.40;99.90;;;;;;5073331;28;20890;-66
2021/12/25 03:30:17;;;;;;;1999.90;999.90;;;-2.40;99.90;;;;;;5072745;28;20791;-66
2021/12/25 03:32:44;;;;;;;1999.90;999.90;;;-2.40;99.90;;;;;;5073595;28;20483;-66
2021/12/25 03:35:11;;;;;;;1999.90;999.90;;;-2.40;99.90;;;;;;5066406;28;20477;-67
2021/12/25 03:37:38;;;;;;;1999.90;999.90;;;-2.40;99.90;;;;;;5063615;28;20445;-66
2021/12/25 03:40:05;;;;;;;1999.90;999.90;;;-2.40;99.90;;;;;;5072458;28;20534;-66
2021/12/25 03:42:32;;;;;;;1999.90;999.90;;;-2.50;99.90;;;;;;5063986;28;20512;-66
2021/12/25 03:44:58;;;;;;;1999.90;999.90;;;-2.50;99.90;;;;;;5052348;28;20446;-66
2021/12/25 03:47:31;;;;;;;1999.90;999.90;;;-2.60;99.90;;;;;;5052508;28;20496;-66
2021/12/25 03:58:15;;;;;;;1999.90;999.90;;;-2.50;99.90;;;;;;5051595;28;20844;-66
2021/12/25 04:00:44;;;;;;;1999.90;999.90;;;-2.50;99.90;;;;;;5051800;28;20519;-67
2021/12/25 04:03:20;;;;;;;1999.90;999.90;;;-2.60;99.90;;;;;;5052027;28;20452;-66
2021/12/25 04:05:48;;;;;;;1999.90;999.90;;;-2.50;99.90;;;;;;5051769;28;20442;-66
2021/12/25 04:08:19;;;;;;;1999.90;999.90;;;-2.50;99.90;;;;;;5051912;28;20553;-66
2021/12/25 04:10:50;;;;;;;1999.90;999.90;;;-2.50;99.90;;;;;;5048775;28;20457;-66
2021/12/25 04:13:18;;;;;;;1999.90;999.90;;;-2.40;99.90;;;;;;5051696;28;20446;-66
2021/12/25 04:15:45;;;;;;;1999.90;999.90;;;-2.50;99.90;;;;;;5051975;28;20478;-67
2021/12/25 04:18:13;;;;;;;1999.90;999.90;;;-2.50;99.90;;;;;;5051761;28;20474;-66
2021/12/25 04:20:41;;;;;;;1999.90;999.90;;;-2.60;99.90;;;;;;5051709;28;20942;-66
2021/12/25 04:23:11;;;;;;;1999.90;999.90;;;-2.60;99.90;;;;;;5051572;28;20473;-66
2021/12/25 04:25:38;;;;;;;1999.90;999.90;;;-2.60;99.90;;;;;;5051991;28;20442;-66
2021/12/25 04:28:13;;;;;;;1999.90;999.90;;;-2.60;99.90;;;;;;5051412;28;21169;-66
2021/12/25 04:30:59;;;;;;;1999.90;999.90;;;-2.00;99.90;;;;;;5051440;28;20468;-66
2021/12/25 05:03:43;;;;;;;1999.90;999.90;;;-2.80;99.90;;;;;;5028157;28;20430;-66
2021/12/25 05:06:11;;;;;;;1999.90;999.90;;;-2.80;99.90;;;;;;5051409;28;20519;-66
2021/12/25 05:08:38;;;;;;;1999.90;999.90;;;-2.80;99.90;;;;;;5050952;28;20977;-67
2021/12/25 05:11:05;;;;;;;1999.90;999.90;;;-2.70;99.90;;;;;;5050816;28;20453;-66
2021/12/25 05:13:32;;;;;;;1999.90;999.90;;;-2.70;99.90;;;;;;5052047;28;20500;-67
2021/12/25 05:15:59;;;;;;;1999.90;999.90;;;-2.70;99.90;;;;;;5052164;28;20481;-67
2021/12/25 05:18:26;;;;;;;1999.90;999.90;;;-2.90;99.90;;;;;;5050994;28;20892;-66
2021/12/25 05:20:53;;;;;;;1999.90;999.90;;;-2.80;99.90;;;;;;5050789;28;20442;-68
2021/12/25 05:23:21;;;;;;;1999.90;999.90;;;-2.90;99.90;;;;;;5050665;28;20484;-66
2021/12/25 05:25:49;;;;;;;1999.90;999.90;;;-2.80;99.90;;;;;;5053829;28;20583;-67
2021/12/25 05:28:23;;;;;;;1999.90;999.90;;;-2.80;99.90;;;;;;5056894;28;20477;-67
2021/12/25 05:30:51;;;;;;;1999.90;999.90;;;-2.80;99.90;;;;;;5050911;28;20453;-66
2021/12/25 05:33:17;;;;;;;1999.90;999.90;;;-2.80;99.90;;;;;;5050779;28;20451;-66
2021/12/25 05:35:45;;;;;;;1999.90;999.90;;;-2.90;99.90;;;;;;5050298;28;20899;-66
2021/12/25 05:38:14;;;;;;;1999.90;999.90;;;-2.90;99.90;;;;;;5051631;28;20551;-66
2021/12/25 05:40:42;;;;;;;1999.90;999.90;;;-2.80;99.90;;;;;;5053992;28;20489;-66
2021/12/25 05:43:09;;;;;;;1999.90;999.90;;;-2.90;99.90;;;;;;5054565;28;20457;-66
2021/12/25 05:45:36;;;;;;;1999.90;999.90;;;-2.90;99.90;;;;;;5054266;28;20492;-67
2021/12/25 05:48:03;;;;;;;1999.90;999.90;;;-2.90;99.90;;;;;;5055076;28;20525;-66
2021/12/25 05:50:30;;;;;;;1999.90;999.90;;;-3.00;99.90;;;;;;5068437;28;20449;-65
2021/12/25 05:52:57;;;;;;;1999.90;999.90;;;-3.00;99.90;;;;;;5054286;28;20446;-66
2021/12/25 05:55:24;;;;;;;1999.90;999.90;;;-3.00;99.90;;;;;;5053841;28;20481;-67
2021/12/25 05:57:52;;;;;;;1999.90;999.90;;;-3.00;99.90;;;;;;5054398;28;20516;-66
2021/12/25 06:00:20;;;;;;;1999.90;999.90;;;-3.00;99.90;;;;;;5055101;28;20450;-66
2021/12/25 06:02:47;;;;;;;1999.90;999.90;;;-3.10;99.90;;;;;;5053987;28;20447;-66
2021/12/25 06:05:14;;;;;;;1999.90;999.90;;;-3.10;99.90;;;;;;5054094;28;20450;-66
2021/12/25 06:07:42;;;;;;;1999.90;999.90;;;-3.10;99.90;;;;;;5053900;28;20446;-66
2021/12/25 06:10:10;;;;;;;1999.90;999.90;;;-3.10;99.90;;;;;;5053362;28;20446;-66
2021/12/25 06:12:38;;;;;;;1999.90;999.90;;;-3.20;99.90;;;;;;5054173;28;20454;-68
2021/12/25 06:15:08;;;;;;;1999.90;999.90;;;-3.20;99.90;;;;;;5054023;28;20611;-66
2021/12/25 06:17:35;;;;;;;1999.90;999.90;;;-3.30;99.90;;;;;;5053816;28;20862;-66
2021/12/25 06:20:02;;;;;;;1999.90;999.90;;;-3.30;99.90;;;;;;5053832;28;20450;-65
2021/12/25 06:22:28;;;;;;;1999.90;999.90;;;-3.40;99.90;;;;;;5054350;28;20504;-66
2021/12/25 06:24:55;;;;;;;1999.90;999.90;;;-3.50;99.90;;;;;;5053687;28;20504;-67
2021/12/25 06:27:23;;;;;;;1999.90;999.90;;;-3.50;99.90;;;;;;5054118;28;20450;-66
2021/12/25 06:29:51;;;;;;;1999.90;999.90;;;-3.50;99.90;;;;;;5053587;28;21182;-66
2021/12/25 06:32:20;;;;;;;1999.90;999.90;;;-3.60;99.90;;;;;;5053414;28;20542;-67
2021/12/25 06:34:46;;;;;;;1999.90;999.90;;;-3.70;99.90;;;;;;5053517;28;21254;-66
2021/12/25 06:37:14;;;;;;;1999.90;999.90;;;-3.70;99.90;;;;;;5053537;28;20454;-66
2021/12/25 06:39:41;;;;;;;1999.90;999.90;;;-3.70;99.90;;;;;;5053544;28;20465;-66
2021/12/25 06:42:09;;;;;;;1999.90;999.90;;;-3.80;99.90;;;;;;5053220;28;20450;-66
2021/12/25 06:44:37;;;;;;;1999.90;999.90;;;-3.80;99.90;;;;;;5053059;28;20496;-65
2021/12/25 06:47:04;;;;;;;1999.90;999.90;;;-3.90;99.90;;;;;;5053739;28;20468;-67
2021/12/25 06:49:32;;;;;;;1999.90;999.90;;;-3.90;99.90;;;;;;5052506;28;20462;-68
2021/12/25 06:51:59;;;;;;;1999.90;999.90;;;-3.90;99.90;;;;;;5052656;28;21016;-66
2021/12/25 06:54:26;;;;;;;1999.90;999.90;;;-4.00;99.90;;;;;;5053044;28;20512;-66
2021/12/25 06:56:53;;;;;;;1999.90;999.90;;;-3.90;99.90;;;;;;5053013;28;20443;-66
2021/12/25 06:59:22;;;;;;;1999.90;999.90;;;-3.90;99.90;;;;;;5052772;28;20469;-66
2021/12/25 07:01:50;;;;;;;1999.90;999.90;;;-4.00;99.90;;;;;;5052231;28;20465;-67
2021/12/25 07:04:17;;;;;;;1999.90;999.90;;;-4.00;99.90;;;;;;5052268;28;20450;-66
2021/12/25 07:06:45;;;;;;;1999.90;999.90;;;-3.90;99.90;;;;;;5053266;28;20572;-67
2021/12/25 07:09:11;;;;;;;1999.90;999.90;;;-4.00;99.90;;;;;;5053168;28;20470;-67
2021/12/25 07:11:38;;;;;;;1999.90;999.90;;;-4.00;99.90;;;;;;5032554;28;20451;-67
2021/12/25 07:14:08;;;;;;;1999.90;999.90;;;-4.20;99.90;;;;;;5051845;28;20508;-66
2021/12/25 07:16:35;;;;;;;1999.90;999.90;;;-4.00;99.90;;;;;;5052126;28;20486;-66
2021/12/25 07:19:02;;;;;;;1999.90;999.90;;;-4.40;99.90;;;;;;5052388;28;20517;-67
2021/12/25 07:21:29;;;;;;;1999.90;999.90;;;-4.60;99.90;;;;;;5055761;28;20481;-65
2021/12/25 07:23:57;;;;;;;1999.90;999.90;;;-4.70;99.90;;;;;;5052417;28;20954;-66
2021/12/25 07:26:24;;;;;;;1999.90;999.90;;;-4.70;99.90;;;;;;5052062;28;20504;-66
2021/12/25 07:28:50;;;;;;;1999.90;999.90;;;-4.80;99.90;;;;;;5052498;28;20596;-66
2021/12/25 07:31:18;;;;;;;1999.90;999.90;;;-4.90;99.90;;;;;;5052025;28;20458;-66
2021/12/25 07:33:45;;;;;;;1999.90;999.90;;;-4.90;99.90;;;;;;5054607;28;21205;-67
2021/12/25 07:36:13;;;;;;;1999.90;999.90;;;-5.00;99.90;;;;;;5049093;28;20898;-67
2021/12/25 07:38:40;;;;;;;1999.90;999.90;;;-5.00;99.90;;;;;;5048652;28;20531;-68
2021/12/25 07:41:08;;;;;;;1999.90;999.90;;;-5.10;99.90;;;;;;5048425;28;20950;-66
2021/12/25 07:43:35;;;;;;;1999.90;999.90;;;-5.20;99.90;;;;;;5052118;28;20450;-67
2021/12/25 07:46:03;;;;;;;1999.90;999.90;;;-5.20;99.90;;;;;;5052402;28;20492;-67
2021/12/25 07:48:29;;;;;;;1999.90;999.90;;;-5.20;99.90;;;;;;5051697;28;21055;-66
2021/12/25 07:50:57;;;;;;;1999.90;999.90;;;-5.20;99.90;;;;;;5050241;28;20869;-65
2021/12/25 07:53:24;;;;;;;1999.90;999.90;;;-5.30;99.90;;;;;;5051937;28;20493;-65
2021/12/25 07:55:51;;;;;;;1999.90;999.90;;;-5.30;99.90;;;;;;5050477;28;20866;-66
2021/12/25 07:58:19;;;;;;;1999.90;999.90;;;-5.40;99.90;;;;;;5051026;28;20462;-65
2021/12/25 08:00:46;;;;;;;1999.90;999.90;;;-5.40;99.90;;;;;;5050596;28;20943;-64
2021/12/25 08:03:15;;;;;;;1999.90;999.90;;;-5.30;99.90;;;;;;5049979;28;20469;-67
2021/12/25 08:05:43;;;;;;;1999.90;999.90;;;-5.30;99.90;;;;;;5051526;28;20470;-64
2021/12/25 08:08:11;;;;;;;1999.90;999.90;;;-5.30;99.90;;;;;;5051975;28;20465;-66
2021/12/25 08:10:38;;;;;;;1999.90;999.90;;;-5.20;99.90;;;;;;5045603;28;20457;-66
2021/12/25 08:13:05;;;;;;;1999.90;999.90;;;-5.20;99.90;;;;;;5050913;28;20524;-66
2021/12/25 08:15:33;;;;;;;1999.90;999.90;;;-5.30;99.90;;;;;;5071350;28;20527;-66
2021/12/25 08:18:01;;;;;;;1999.90;999.90;;;-5.20;99.90;;;;;;5032232;28;20898;-67
2021/12/25 08:20:28;;;;;;;1999.90;999.90;;;-5.10;99.90;;;;;;5050289;28;20450;-67
2021/12/25 08:22:55;;;;;;;1999.90;999.90;;;-5.10;99.90;;;;;;5051220;28;20462;-66
2021/12/25 08:25:22;;;;;;;1999.90;999.90;;;-5.00;99.90;;;;;;5051405;28;20496;-67
2021/12/25 08:27:50;;;;;;;1999.90;999.90;;;-4.90;99.90;;;;;;5051560;28;20446;-66
2021/12/25 08:30:20;;;;;;;1999.90;999.90;;;-4.90;99.90;;;;;;5051895;28;20458;-66
2021/12/25 08:32:50;;;;;;;1999.90;999.90;;;-4.90;99.90;;;;;;5052269;28;20437;-68
2021/12/25 08:35:18;;;;;;;1999.90;999.90;;;-5.00;99.90;;;;;;5049536;28;20546;-66
2021/12/25 08:37:46;;;;;;;1999.90;999.90;;;-5.00;99.90;;;;;;5051653;28;20468;-66
2021/12/25 08:40:13;;;;;;;1999.90;999.90;;;-5.00;99.90;;;;;;5051716;28;20892;-68
2021/12/25 08:42:46;;;;;;;1999.90;999.90;;;-5.00;99.90;;;;;;5051992;28;20450;-65
2021/12/25 08:45:30;;;;;;;1999.90;999.90;;;-4.90;99.90;;;;;;5061961;28;20465;-66
2021/12/25 08:47:58;;;;;;;1999.90;999.90;;;-4.90;99.90;;;;;;5051495;28;20561;-67
2021/12/25 08:50:26;;;;;;;1999.90;999.90;;;-4.70;99.90;;;;;;5051008;28;20450;-68
2021/12/25 08:52:53;;;;;;;1999.90;999.90;;;-4.60;99.90;;;;;;5051609;28;20932;-66
2021/12/25 08:55:20;;;;;;;1999.90;999.90;;;-4.60;99.90;;;;;;5055840;28;20526;-65
2021/12/25 08:57:46;;;;;;;1999.90;999.90;;;-4.60;99.90;;;;;;5071221;28;20445;-66
2021/12/25 09:00:14;;;;;;;1999.90;999.90;;;-4.50;99.90;;;;;;5037761;28;20511;-66
2021/12/25 09:02:41;;;;;;;1999.90;999.90;;;-4.50;99.90;;;;;;5051314;28;20500;-66
2021/12/25 09:05:09;;;;;;;1999.90;999.90;;;-4.30;99.90;;;;;;5051048;28;21000;-65
2021/12/25 09:07:36;;;;;;;1999.90;999.90;;;-4.30;99.90;;;;;;5051304;28;20496;-66
2021/12/25 09:10:03;;;;;;;1999.90;999.90;;;-4.20;99.90;;;;;;5048036;28;20461;-67
2021/12/25 09:12:32;;;;;;;1999.90;999.90;;;-4.10;99.90;;;;;;5050307;28;20454;-64
2021/12/25 09:14:59;;;;;;;1999.90;999.90;;;-4.10;99.90;;;;;;5054818;28;20446;-67
2021/12/25 09:17:25;;;;;;;1999.90;999.90;;;-4.10;99.90;;;;;;5054034;28;20442;-66
2021/12/25 09:19:52;;;;;;;1999.90;999.90;;;-4.00;99.90;;;;;;5056328;28;20461;-64
2021/12/25 09:22:20;;;;;;;1999.90;999.90;;;-3.80;99.90;;;;;;5054892;28;20472;-66
2021/12/25 09:24:47;;;;;;;1999.90;999.90;;;-3.70;99.90;;;;;;5053546;28;20473;-66
2021/12/25 09:27:13;;;;;;;1999.90;999.90;;;-3.80;99.90;;;;;;5054527;28;20478;-66
2021/12/25 09:29:40;;;;;;;1999.90;999.90;;;-3.80;99.90;;;;;;5054366;28;21028;-67
2021/12/25 09:32:07;;;;;;;1999.90;999.90;;;-3.80;99.90;;;;;;5053950;28;20527;-66
2021/12/25 09:34:34;;;;;;;1999.90;999.90;;;-3.70;99.90;;;;;;5051805;28;20504;-65
2021/12/25 09:37:01;;;;;;;1999.90;999.90;;;-3.60;99.90;;;;;;5054383;28;20500;-66
2021/12/25 09:39:28;;;;;;;1999.90;999.90;;;-3.60;99.90;;;;;;5054920;28;20885;-63
2021/12/25 09:41:55;;;;;;;1999.90;999.90;;;-3.70;99.90;;;;;;5053855;28;20939;-66
2021/12/25 09:44:22;;;;;;;1999.90;999.90;;;-3.70;99.90;;;;;;5054509;28;20993;-62
2021/12/25 09:46:49;;;;;;;1999.90;999.90;;;-3.70;99.90;;;;;;5054118;28;20532;-63
2021/12/25 09:49:15;;;;;;;1999.90;999.90;;;-3.70;99.90;;;;;;5053603;28;20469;-67
2021/12/25 09:51:42;;;;;;;1999.90;999.90;;;-3.80;99.90;;;;;;5055180;28;20450;-66
2021/12/25 09:54:11;;;;;;;1999.90;999.90;;;-3.70;99.90;;;;;;5060216;28;20574;-67
2021/12/25 09:56:40;;;;;;;1999.90;999.90;;;-3.70;99.90;;;;;;5053522;28;20878;-66
2021/12/25 09:59:10;;;;;;;1999.90;999.90;;;-3.50;99.90;;;;;;5038339;28;20458;-66
2021/12/25 10:01:39;;;;;;;1999.90;999.90;;;-3.50;99.90;;;;;;5056148;28;20445;-67
2021/12/25 10:04:06;;;;;;;1999.90;999.90;;;-3.40;99.90;;;;;;5069140;28;21000;-66
2021/12/25 10:06:35;;;;;;;1999.90;999.90;;;-3.60;99.90;;;;;;5054415;28;20532;-66
2021/12/25 10:09:12;;;;;;;1999.90;999.90;;;-3.70;99.90;;;;;;5053462;28;21031;-67
2021/12/25 10:11:59;;;;;;;1999.90;999.90;;;-3.90;99.90;;;;;;5053410;28;20446;-67
2021/12/25 10:14:26;;;;;;;1999.90;999.90;;;-3.80;99.90;;;;;;5054410;28;20434;-67
2021/12/25 10:16:53;;;;;;;1999.90;999.90;;;-3.80;99.90;;;;;;5053539;28;20446;-67
2021/12/25 10:19:22;;;;;;;1999.90;999.90;;;-3.80;99.90;;;;;;5057717;28;21101;-65
2021/12/25 10:22:02;;;;;;;1999.90;999.90;;;-3.70;99.90;;;;;;5054421;28;20454;-66
2021/12/25 10:24:29;;;;;;;1999.90;999.90;;;-3.50;99.90;;;;;;5044267;28;21205;-67
2021/12/25 10:27:10;;;;;;;1999.90;999.90;;;-3.50;99.90;;;;;;5052187;28;20478;-68
2021/12/25 10:29:37;;;;;;;1999.90;999.90;;;-3.60;99.90;;;;;;5050730;28;20469;-66
2021/12/25 10:32:17;;;;;;;1999.90;999.90;;;-3.20;99.90;;;;;;5051208;28;20946;-66
2021/12/25 10:34:44;;;;;;;1999.90;999.90;;;-3.70;99.90;;;;;;5051312;28;21025;-66
2021/12/25 10:37:14;;;;;;;1999.90;999.90;;;-3.10;99.90;;;;;;5051896;28;20454;-66
2021/12/25 10:39:42;;;;;;;1999.90;999.90;;;-3.50;99.90;;;;;;5051958;28;20527;-67
2021/12/25 10:42:13;;;;;;;1999.90;999.90;;;-3.50;99.90;;;;;;5061893;28;20453;-66
2021/12/25 10:44:42;;;;;;;1999.90;999.90;;;-3.40;99.90;;;;;;5073182;28;20928;-66
2021/12/25 10:47:12;;;;;;;1999.90;999.90;;;-3.40;99.90;;;;;;5073630;28;20526;-67
2021/12/25 10:49:42;;;;;;;1999.90;999.90;;;-3.40;99.90;;;;;;5073451;28;20465;-66
2021/12/25 10:52:15;;;;;;;1999.90;999.90;;;-3.50;99.90;;;;;;5062987;28;20443;-67
2021/12/25 10:54:46;;;;;;;1999.90;999.90;;;-3.50;99.90;;;;;;5067765;28;20445;-67
2021/12/25 10:57:31;;;;;;;1999.90;999.90;;;-3.40;99.90;;;;;;5073073;28;20469;-68
2021/12/25 10:59:58;;;;;;;1999.90;999.90;;;-3.40;99.90;;;;;;5073144;28;20536;-66
2021/12/25 11:02:34;;;;;;;1999.90;999.90;;;-3.50;99.90;;;;;;5073204;28;20876;-67
2021/12/25 11:05:01;;;;;;;1999.90;999.90;;;-3.60;99.90;;;;;;5064726;28;20446;-65
2021/12/25 11:07:28;;;;;;;1999.90;999.90;;;-3.60;99.90;;;;;;5052729;28;20474;-66
2021/12/25 11:10:07;;;;;;;1999.90;999.90;;;-3.80;99.90;;;;;;5053181;28;20516;-66
2021/12/25 11:12:37;;;;;;;1999.90;999.90;;;-3.80;99.90;;;;;;5053127;28;20446;-66
2021/12/25 11:15:12;;;;;;;1999.90;999.90;;;-3.70;99.90;;;;;;5053392;28;20473;-66
2021/12/25 11:17:41;;;;;;;1999.90;999.90;;;-3.70;99.90;;;;;;5053087;28;20464;-66
2021/12/25 11:20:17;;;;;;;1999.90;999.90;;;-3.70;99.90;;;;;;5052894;28;20446;-66
2021/12/25 11:22:50;;;;;;;1999.90;999.90;;;-3.80;99.90;;;;;;5053013;28;20449;-67
2021/12/25 11:25:20;;;;;;;1999.90;999.90;;;-3.90;99.90;;;;;;5052682;28;20863;-65
2021/12/25 11:27:49;;;;;;;1999.90;999.90;;;-4.00;99.90;;;;;;5053047;28;20477;-67
2021/12/25 11:30:16;;;;;;;1999.90;999.90;;;-3.90;99.90;;;;;;5052212;28;20465;-67
2021/12/25 11:32:42;;;;;;;1999.90;999.90;;;-4.20;99.90;;;;;;5053019;28;20504;-66
2021/12/25 11:35:10;;;;;;;1999.90;999.90;;;-4.10;99.90;;;;;;5052665;28;20442;-66
2021/12/25 11:37:37;;;;;;;1999.90;999.90;;;-4.00;99.90;;;;;;5051946;28;20501;-65
2021/12/25 11:40:08;;;;;;;1999.90;999.90;;;-3.90;99.90;;;;;;5052246;28;20447;-66
2021/12/25 11:42:40;;;;;;;1999.90;999.90;;;-3.90;99.90;;;;;;5052283;28;20442;-66
2021/12/25 11:45:18;;;;;;;1999.90;999.90;;;-3.90;99.90;;;;;;5052400;28;20450;-66
2021/12/25 11:47:46;;;;;;;1999.90;999.90;;;-4.00;99.90;;;;;;5052349;28;20525;-66
2021/12/25 11:50:15;;;;;;;1999.90;999.90;;;-4.00;99.90;;;;;;5052400;28;20446;-66
2021/12/25 11:52:48;;;;;;;1999.90;999.90;;;-3.90;99.90;;;;;;5072204;28;20451;-66
2021/12/25 11:55:27;;;;;;;1999.90;999.90;;;-3.80;99.90;;;;;;5072380;28;20445;-67
2021/12/25 11:58:02;;;;;;;1999.90;999.90;;;-3.70;99.90;;;;;;5065732;28;20469;-67
2021/12/25 12:00:39;;;;;;;1999.90;999.90;;;-3.80;99.90;;;;;;5053466;28;20434;-66
2021/12/25 12:03:07;;;;;;;1999.90;999.90;;;-3.60;99.90;;;;;;5057728;28;21007;-66
2021/12/25 12:05:36;;;;;;;1999.90;999.90;;;-3.50;99.90;;;;;;5072037;28;20445;-66
2021/12/25 12:08:07;;;;;;;1999.90;999.90;;;-3.50;99.90;;;;;;5071983;28;20546;-67
2021/12/25 12:10:50;;;;;;;1999.90;999.90;;;-3.50;99.90;;;;;;5071930;28;20433;-66
2021/12/25 12:13:19;;;;;;;1999.90;999.90;;;-3.30;99.90;;;;;;5060086;28;20447;-66
2021/12/25 12:15:49;;;;;;;1999.90;999.90;;;-3.20;99.90;;;;;;5061102;28;20495;-67
2021/12/25 12:18:37;;;;;;;1999.90;999.90;;;-3.00;99.90;;;;;;5073124;28;20511;-66
2021/12/25 12:21:09;;;;;;;1999.90;999.90;;;-3.00;99.90;;;;;;5071759;28;20498;-66
2021/12/25 12:23:46;;;;;;;1999.90;999.90;;;-3.00;99.90;;;;;;5071913;28;20429;-66
2021/12/25 12:26:14;;;;;;;1999.90;999.90;;;-2.80;99.90;;;;;;5068594;28;20458;-67
2021/12/25 12:28:46;;;;;;;1999.90;999.90;;;-2.80;99.90;;;;;;5070289;28;20544;-66
2021/12/25 12:31:40;;;;;;;1999.90;999.90;;;-2.70;99.90;;;;;;5071549;28;20999;-66
2021/12/25 12:34:35;;;;;;;1999.90;999.90;;;-2.80;99.90;;;;;;5071592;28;20430;-66
2021/12/25 12:37:30;;;;;;;1999.90;999.90;;;-2.70;99.90;;;;;;5065889;28;20453;-66
2021/12/25 12:40:25;;;;;;;1999.90;999.90;;;-2.80;99.90;;;;;;5058270;28;20473;-67
2021/12/25 12:42:59;;;;;;;1999.90;999.90;;;-2.70;99.90;;;;;;5051646;28;20446;-67
2021/12/25 12:45:30;;;;;;;1999.90;999.90;;;-2.80;99.90;;;;;;5051066;28;21129;-67
2021/12/25 12:48:14;;;;;;;1999.90;999.90;;;-2.70;99.90;;;;;;5053355;28;20631;-67
2021/12/25 12:50:44;;;;;;;1999.90;999.90;;;-2.90;99.90;;;;;;5055287;28;20445;-64
2021/12/25 12:53:11;;;;;;;1999.90;999.90;;;-2.80;99.90;;;;;;5075702;28;20452;-66
2021/12/25 12:55:41;;;;;;;1999.90;999.90;;;-3.00;99.90;;;;;;5075765;28;20453;-67
2021/12/25 12:58:11;;;;;;;1999.90;999.90;;;-3.00;99.90;;;;;;5072279;28;20990;-68